createdAt,value
2023-02-16T00:03:24.464Z,35.60
2023-02-16T00:07:28.691Z,34.50
2023-02-16T00:11:51.669Z,34.63
2023-02-16T00:15:54.740Z,36.13
2023-02-16T00:19:57.533Z,34.97
2023-02-16T00:24:04.000Z,35.70
2023-02-16T00:28:13.958Z,34.63
2023-02-16T00:32:17.636Z,37.03
2023-02-16T00:36:20.606Z,35.83
2023-02-16T00:40:25.395Z,35.13
2023-02-16T00:44:33.529Z,35.60
2023-02-16T00:48:36.640Z,34.70
2023-02-16T00:52:42.733Z,33.57
2023-02-16T00:56:47.640Z,34.83
2023-02-16T01:00:53.936Z,35.20
2023-02-16T01:04:56.827Z,34.63
2023-02-16T01:09:30.017Z,35.00
2023-02-16T01:13:39.453Z,34.70
2023-02-16T01:17:42.641Z,34.83
2023-02-16T01:21:45.582Z,37.17
2023-02-16T01:25:48.461Z,34.03
2023-02-16T01:29:54.820Z,36.93
2023-02-16T01:33:57.662Z,36.70
2023-02-16T01:38:00.516Z,36.77
2023-02-16T01:42:27.924Z,36.00
2023-02-16T01:46:40.724Z,34.77
2023-02-16T01:50:49.918Z,37.47
2023-02-16T01:54:56.974Z,36.07
2023-02-16T01:59:04.494Z,36.93
2023-02-16T02:03:32.617Z,36.00
2023-02-16T02:07:41.541Z,36.63
2023-02-16T02:11:47.826Z,36.63
2023-02-16T02:15:51.098Z,37.27
2023-02-16T02:20:05.445Z,36.03
2023-02-16T02:24:44.679Z,35.90
2023-02-16T02:28:56.793Z,34.37
2023-02-16T02:33:16.953Z,37.23
2023-02-16T02:37:25.399Z,35.47
2023-02-16T02:41:50.673Z,34.53
2023-02-16T02:45:58.118Z,34.60
2023-02-16T02:50:01.010Z,35.80
2023-02-16T02:54:26.236Z,35.97
2023-02-16T02:59:06.856Z,32.40
2023-02-16T03:03:17.060Z,35.13
2023-02-16T03:07:22.090Z,38.13
2023-02-16T03:11:47.967Z,36.03
2023-02-16T03:15:55.817Z,37.10
2023-02-16T03:20:20.518Z,34.27
2023-02-16T03:24:45.689Z,38.47
2023-02-16T03:29:07.713Z,36.47
2023-02-16T03:33:10.952Z,35.67
2023-02-16T03:37:15.720Z,36.67
2023-02-16T03:41:18.660Z,36.80
2023-02-16T03:45:24.309Z,34.97
2023-02-16T03:49:27.245Z,36.83
2023-02-16T03:53:31.403Z,38.43
2023-02-16T03:57:34.301Z,37.10
2023-02-16T04:01:37.123Z,37.47
2023-02-16T04:05:40.259Z,38.20
2023-02-16T04:09:44.766Z,36.83
2023-02-16T04:13:47.614Z,35.20
2023-02-16T04:17:50.727Z,38.13
2023-02-16T04:21:53.867Z,36.47
2023-02-16T04:25:58.061Z,36.90
2023-02-16T04:30:00.957Z,36.97
2023-02-16T04:34:03.842Z,37.50
2023-02-16T04:38:06.628Z,38.00
2023-02-16T04:42:10.903Z,37.30
2023-02-16T04:46:13.762Z,36.13
2023-02-16T04:50:16.626Z,36.87
2023-02-16T04:54:19.439Z,35.60
2023-02-16T04:58:23.553Z,35.90
2023-02-16T05:02:26.384Z,38.40
2023-02-16T05:06:29.370Z,35.57
2023-02-16T05:10:32.276Z,38.57
2023-02-16T05:14:42.595Z,36.43
2023-02-16T05:18:45.418Z,35.23
2023-02-16T05:22:48.270Z,37.47
2023-02-16T05:26:51.061Z,36.87
2023-02-16T05:30:56.207Z,37.43
2023-02-16T05:34:59.082Z,36.17
2023-02-16T05:39:01.999Z,40.47
2023-02-16T05:43:04.807Z,37.67
2023-02-16T05:47:09.159Z,37.40
2023-02-16T05:51:12.081Z,37.93
2023-02-16T05:55:14.869Z,39.10
2023-02-16T05:59:18.644Z,37.70
2023-02-16T06:03:22.940Z,38.63
2023-02-16T06:07:25.874Z,39.50
2023-02-16T06:11:37.455Z,40.50
2023-02-16T06:15:40.372Z,39.07
2023-02-16T06:19:44.936Z,40.07
2023-02-16T06:23:47.828Z,39.27
2023-02-16T06:27:52.609Z,38.43
2023-02-16T06:31:55.635Z,39.20
2023-02-16T06:35:59.921Z,39.00
2023-02-16T06:40:02.742Z,38.17
2023-02-16T06:44:07.750Z,38.40
2023-02-16T06:48:10.557Z,38.40
2023-02-16T06:52:14.665Z,39.40
2023-02-16T06:56:17.551Z,40.00
2023-02-16T07:00:21.003Z,38.23
2023-02-16T07:04:24.000Z,38.07
2023-02-16T07:08:28.266Z,38.83
2023-02-16T07:12:31.198Z,37.13
2023-02-16T07:16:34.115Z,38.03
2023-02-16T07:20:37.818Z,37.57
2023-02-16T07:24:42.069Z,36.57
2023-02-16T07:28:44.965Z,35.87
2023-02-16T07:32:47.969Z,37.03
2023-02-16T07:36:50.867Z,35.20
2023-02-16T07:40:54.969Z,36.83
2023-02-16T07:44:57.796Z,35.00
2023-02-16T07:49:00.749Z,36.80
2023-02-16T07:53:03.820Z,36.07
2023-02-16T07:57:08.026Z,34.67
2023-02-16T08:01:15.434Z,32.80
2023-02-16T08:05:18.780Z,33.77
2023-02-16T08:09:21.613Z,33.87
2023-02-16T08:13:25.848Z,35.33
2023-02-16T08:17:28.742Z,33.53
2023-02-16T08:21:33.359Z,34.83
2023-02-16T08:25:36.608Z,34.27
2023-02-16T08:29:41.544Z,31.57
2023-02-16T08:33:45.020Z,32.00
2023-02-16T08:37:47.955Z,34.80
2023-02-16T08:41:51.531Z,33.70
2023-02-16T08:45:55.900Z,34.63
2023-02-16T08:49:58.835Z,34.40
2023-02-16T08:54:04.881Z,34.90
2023-02-16T08:58:08.617Z,33.97
2023-02-16T09:02:12.844Z,34.60
2023-02-16T09:06:17.709Z,35.50
2023-02-16T09:10:22.189Z,32.00
2023-02-16T09:14:25.089Z,32.17
2023-02-16T09:18:29.393Z,30.10
2023-02-16T09:22:32.916Z,33.03
2023-02-16T09:26:38.510Z,31.00
2023-02-16T09:30:41.327Z,31.10
2023-02-16T09:34:46.262Z,30.60
2023-02-16T09:38:49.186Z,30.90
2023-02-16T09:43:04.506Z,30.77
2023-02-16T09:47:25.422Z,30.73
2023-02-16T09:51:36.128Z,31.77
2023-02-16T09:55:46.404Z,30.83
2023-02-16T09:59:57.659Z,30.27
2023-02-16T10:04:12.970Z,30.40
2023-02-16T10:08:22.715Z,30.77
2023-02-16T10:12:30.186Z,32.63
2023-02-16T10:16:38.900Z,32.27
2023-02-16T10:20:44.323Z,30.50
2023-02-16T10:25:00.574Z,31.30
2023-02-16T10:29:07.906Z,31.67
2023-02-16T10:33:16.494Z,30.57
2023-02-16T10:37:38.997Z,30.87
2023-02-16T10:41:46.701Z,31.83
2023-02-16T10:45:53.060Z,33.17
2023-02-16T10:49:56.884Z,32.90
2023-02-16T10:54:03.020Z,33.37
2023-02-16T10:58:18.023Z,31.57
2023-02-16T11:02:25.068Z,32.07
2023-02-16T11:06:29.088Z,33.47
2023-02-16T11:10:42.495Z,33.90
2023-02-16T11:14:52.485Z,34.07
2023-02-16T11:19:00.298Z,38.73
2023-02-16T11:23:21.972Z,38.47
2023-02-16T11:27:25.935Z,36.97
2023-02-16T11:31:34.508Z,37.53
2023-02-16T11:35:44.244Z,34.80
2023-02-16T11:39:53.680Z,35.67
2023-02-16T11:43:57.606Z,35.67
2023-02-16T11:48:05.765Z,34.63
2023-02-16T11:52:27.345Z,34.77
2023-02-16T11:56:31.391Z,37.23
2023-02-16T12:00:34.593Z,36.73
2023-02-16T12:04:59.138Z,36.67
2023-02-16T12:09:20.630Z,36.03
2023-02-16T12:13:30.065Z,36.53
2023-02-16T12:17:50.626Z,37.07
2023-02-16T12:22:05.797Z,38.53
2023-02-16T12:26:31.690Z,38.90
2023-02-16T12:30:47.092Z,40.27
2023-02-16T12:35:04.077Z,41.20
2023-02-16T12:39:18.319Z,40.40
2023-02-16T12:43:35.832Z,40.60
2023-02-16T12:47:44.897Z,40.50
2023-02-16T12:51:51.631Z,39.20
2023-02-16T12:56:00.631Z,43.20
2023-02-16T13:00:17.703Z,47.17
2023-02-16T13:04:28.701Z,47.00
2023-02-16T13:08:39.120Z,47.07
2023-02-16T13:12:50.171Z,40.03
2023-02-16T13:16:57.438Z,44.93
2023-02-16T13:21:05.442Z,41.60
2023-02-16T13:25:43.357Z,44.80
2023-02-16T13:30:00.464Z,42.30
2023-02-16T13:34:22.212Z,41.03
2023-02-16T13:38:51.459Z,42.67
2023-02-16T13:43:14.392Z,42.80
2023-02-16T13:47:25.489Z,40.33
2023-02-16T13:51:30.988Z,41.43
2023-02-16T13:55:37.466Z,41.83
2023-02-16T14:00:02.003Z,37.27
2023-02-16T14:04:07.872Z,38.50
2023-02-16T14:08:27.540Z,38.47
2023-02-16T14:12:34.304Z,36.97
2023-02-16T14:16:37.133Z,37.50
2023-02-16T14:20:41.318Z,36.10
2023-02-16T14:24:44.721Z,36.17
2023-02-16T14:29:03.658Z,37.00
2023-02-16T14:33:20.295Z,36.40
2023-02-16T14:37:36.729Z,34.43
2023-02-16T14:41:41.561Z,35.30
2023-02-16T14:46:08.106Z,37.23
2023-02-16T14:50:28.791Z,34.93
2023-02-16T14:55:02.452Z,35.07
2023-02-16T14:59:12.924Z,34.90
2023-02-16T15:03:18.894Z,34.77
2023-02-16T15:07:23.127Z,34.40
2023-02-16T15:11:33.840Z,36.70
2023-02-16T15:15:45.667Z,34.00
2023-02-16T15:19:48.923Z,36.37
2023-02-16T15:23:53.759Z,33.77
2023-02-16T15:28:00.862Z,34.33
2023-02-16T15:32:08.781Z,33.63
2023-02-16T15:36:14.241Z,34.03
2023-02-16T15:40:26.531Z,33.87
2023-02-16T15:44:34.308Z,37.57
2023-02-16T15:48:38.635Z,34.97
2023-02-16T15:52:42.766Z,35.87
2023-02-16T15:56:48.246Z,34.97
2023-02-16T16:00:54.238Z,35.10
2023-02-16T16:05:01.588Z,36.07
2023-02-16T16:09:08.515Z,35.30
2023-02-16T16:13:19.916Z,35.23
2023-02-16T16:17:27.988Z,33.97
2023-02-16T16:21:35.895Z,32.90
2023-02-16T16:25:43.248Z,33.13
2023-02-16T16:29:48.667Z,32.63
2023-02-16T16:33:58.597Z,32.60
2023-02-16T16:38:01.943Z,31.37
2023-02-16T16:42:29.124Z,31.23
2023-02-16T16:46:32.999Z,31.90
2023-02-16T16:50:39.769Z,33.17
2023-02-16T16:54:42.796Z,32.37
2023-02-16T16:58:50.663Z,30.77
2023-02-16T17:02:53.726Z,30.43
2023-02-16T17:06:58.444Z,32.00
2023-02-16T17:11:01.955Z,32.17
2023-02-16T17:15:07.206Z,31.37
2023-02-16T17:19:12.953Z,44.20
2023-02-16T17:23:19.224Z,45.27
2023-02-16T17:27:23.057Z,38.10
2023-02-16T17:31:26.597Z,37.17
2023-02-16T17:35:31.107Z,35.80
2023-02-16T17:39:36.108Z,34.67
2023-02-16T17:43:38.953Z,35.47
2023-02-16T17:47:43.551Z,45.67
2023-02-16T17:51:46.463Z,38.83
2023-02-16T17:55:52.481Z,37.40
2023-02-16T17:59:55.421Z,33.77
2023-02-16T18:03:59.477Z,35.40
2023-02-16T18:08:02.467Z,35.00
2023-02-16T18:12:07.286Z,34.17
2023-02-16T18:16:14.680Z,37.23
2023-02-16T18:20:17.888Z,40.80
2023-02-16T18:24:20.789Z,35.63
2023-02-16T18:28:30.710Z,37.43
2023-02-16T18:32:33.698Z,34.00
2023-02-16T18:36:36.979Z,34.43
2023-02-16T18:40:42.718Z,37.37
2023-02-16T18:44:48.240Z,36.73
2023-02-16T18:48:51.311Z,35.03
2023-02-16T18:52:54.177Z,32.00
2023-02-16T18:56:57.122Z,34.33
2023-02-16T19:01:01.371Z,38.23
2023-02-16T19:05:04.310Z,36.57
2023-02-16T19:09:07.241Z,39.70
2023-02-16T19:13:10.078Z,45.13
2023-02-16T19:17:14.205Z,38.83
2023-02-16T19:21:17.020Z,36.00
2023-02-16T19:25:21.169Z,36.43
2023-02-16T19:29:24.378Z,37.90
2023-02-16T19:33:28.592Z,39.50
2023-02-16T19:37:31.752Z,38.87
2023-02-16T19:41:37.761Z,32.70
2023-02-16T19:45:41.299Z,36.77
2023-02-16T19:49:45.620Z,36.67
2023-02-16T19:53:49.085Z,32.97
2023-02-16T19:57:51.917Z,33.47
2023-02-16T20:01:55.074Z,37.47
2023-02-16T20:05:59.359Z,33.70
2023-02-16T20:10:02.177Z,32.03
2023-02-16T20:14:05.040Z,30.70
2023-02-16T20:18:08.489Z,34.47
2023-02-16T20:22:12.798Z,36.87
2023-02-16T20:26:18.896Z,37.00
2023-02-16T20:30:25.150Z,36.00
2023-02-16T20:34:28.513Z,36.20
2023-02-16T20:38:32.700Z,42.30
2023-02-16T20:42:35.656Z,41.00
2023-02-16T20:46:39.719Z,41.97
2023-02-16T20:50:43.069Z,42.73
2023-02-16T20:54:47.306Z,40.03
2023-02-16T20:58:51.506Z,33.17
2023-02-16T21:02:54.868Z,33.07
2023-02-16T21:06:57.689Z,38.93
2023-02-16T21:11:01.898Z,38.67
2023-02-16T21:15:05.409Z,37.17
2023-02-16T21:19:17.538Z,37.37
2023-02-16T21:23:25.268Z,33.97
2023-02-16T21:27:29.555Z,37.40
2023-02-16T21:31:34.403Z,35.13
2023-02-16T21:35:37.298Z,33.43
2023-02-16T21:39:57.782Z,33.60
2023-02-16T21:44:05.748Z,36.97
2023-02-16T21:48:26.297Z,33.17
2023-02-16T21:52:29.153Z,31.33
2023-02-16T21:56:36.387Z,32.77
2023-02-16T22:00:40.783Z,31.27
2023-02-16T22:04:43.806Z,30.80
2023-02-16T22:08:46.602Z,27.43
2023-02-16T22:12:49.397Z,31.20
2023-02-16T22:16:53.707Z,28.50
2023-02-16T22:20:56.551Z,26.97
2023-02-16T22:24:59.460Z,30.33
2023-02-16T22:29:03.976Z,27.60
2023-02-16T22:33:08.190Z,29.43
2023-02-16T22:37:11.004Z,29.40
2023-02-16T22:41:13.905Z,29.97
2023-02-16T22:45:16.891Z,31.40
2023-02-16T22:49:21.364Z,30.93
2023-02-16T22:53:26.709Z,32.40
2023-02-16T22:57:29.757Z,30.33
2023-02-16T23:01:32.837Z,30.37
2023-02-16T23:05:37.100Z,31.53
2023-02-16T23:09:40.012Z,29.60
2023-02-16T23:13:42.854Z,33.33
2023-02-16T23:17:46.729Z,33.23
2023-02-16T23:21:51.854Z,33.47
2023-02-16T23:25:55.436Z,30.97
2023-02-16T23:29:58.299Z,27.47
2023-02-16T23:34:02.556Z,29.53
2023-02-16T23:38:07.393Z,30.17
2023-02-16T23:42:10.197Z,29.93
2023-02-16T23:46:13.962Z,27.27
2023-02-16T23:50:17.052Z,26.87
2023-02-16T23:54:21.225Z,26.30
2023-02-16T23:58:25.958Z,24.60
